Gravenhurst, Canada
Current Conditions -  °F | °C
As of 11:05 AM on Tuesday 21 Oct 2014 (Local Time) from CYQA Reporting Station
Moderate Rain Moderate Rain  
Wind Chill: 35°   Ceiling: 1200
Heat Index: 41°   Visibility: 5mi
Dew Point: 41°   Wind: 9mph
Humidity: 100%   Direction: 20°NNE
Pressure: 29.95"   Gusts: 17mph
Location:  44.92°N, 79.37°W
Report Text: CYQA 211505Z AUTO 02008G15KT 340V070 5SM RA BR OVC012 05/05 A2995 RMK SLP151
Loading
Personal Weather Stations






























Interactive Weather Map
Tropical Storm Tracking
New forecast layout! Learn more

10-Day Weather Forecast

Advertisements
Track Severe Weather on mobile